createdAt,value
2018-12-11T00:01:45.689Z,92.55
2018-12-11T00:04:13.118Z,91.77
2018-12-11T00:06:40.524Z,91.60
2018-12-11T00:09:07.895Z,91.70
2018-12-11T00:11:35.311Z,91.54
2018-12-11T00:14:02.817Z,90.49
2018-12-11T00:16:30.188Z,90.49
2018-12-11T00:18:57.566Z,90.20
2018-12-11T00:21:24.989Z,90.50
2018-12-11T00:23:52.393Z,89.31
2018-12-11T00:26:19.784Z,90.09
2018-12-11T00:28:47.167Z,91.28
2018-12-11T00:31:14.543Z,91.04
2018-12-11T00:33:41.928Z,92.46
2018-12-11T00:36:09.335Z,90.83
2018-12-11T00:38:36.717Z,91.44
2018-12-11T00:41:04.142Z,91.07
2018-12-11T00:43:31.523Z,90.08
2018-12-11T00:45:58.891Z,90.99
2018-12-11T00:48:26.261Z,91.35
2018-12-11T00:50:53.656Z,91.12
2018-12-11T00:53:21.042Z,91.27
2018-12-11T00:55:48.399Z,91.89
2018-12-11T00:58:15.806Z,91.58
2018-12-11T01:00:43.213Z,91.38
2018-12-11T01:03:10.616Z,91.39
2018-12-11T01:05:38.015Z,91.64
2018-12-11T01:08:05.407Z,92.17
2018-12-11T01:10:32.771Z,90.99
2018-12-11T01:13:00.199Z,91.57
2018-12-11T01:15:27.578Z,91.21
2018-12-11T01:17:54.978Z,91.54
2018-12-11T01:20:22.463Z,91.29
2018-12-11T01:22:49.846Z,91.40
2018-12-11T01:25:17.211Z,90.78
2018-12-11T01:27:44.590Z,92.01
2018-12-11T01:30:12.066Z,90.99
2018-12-11T01:32:40.847Z,89.98
2018-12-11T01:35:08.316Z,89.65
2018-12-11T01:37:36.496Z,88.46
2018-12-11T01:40:04.423Z,89.54
2018-12-11T01:42:31.828Z,91.05
2018-12-11T01:44:59.211Z,89.16
2018-12-11T01:47:26.608Z,90.00
2018-12-11T01:49:54.062Z,89.86
2018-12-11T01:52:21.489Z,89.74
2018-12-11T01:54:48.909Z,89.44
2018-12-11T01:57:16.398Z,90.05
2018-12-11T01:59:43.858Z,91.34
2018-12-11T02:02:11.238Z,91.62
2018-12-11T02:04:38.669Z,91.10
2018-12-11T02:07:06.087Z,90.44
2018-12-11T02:09:33.492Z,90.55
2018-12-11T02:12:00.908Z,89.08
2018-12-11T02:14:28.273Z,89.32
2018-12-11T02:16:55.784Z,89.69
2018-12-11T02:19:23.183Z,89.51
2018-12-11T02:21:50.782Z,89.95
2018-12-11T02:24:18.182Z,89.38
2018-12-11T02:26:45.543Z,90.17
2018-12-11T02:29:13.515Z,90.31
2018-12-11T02:31:40.870Z,88.78
2018-12-11T02:34:08.859Z,89.65
2018-12-11T02:36:36.277Z,89.42
2018-12-11T02:39:06.096Z,89.58
2018-12-11T02:41:33.507Z,90.55
2018-12-11T02:44:00.864Z,90.88
2018-12-11T02:46:28.303Z,89.61
2018-12-11T02:48:55.666Z,90.41
2018-12-11T02:51:23.105Z,89.61
2018-12-11T02:53:50.467Z,90.11
2018-12-11T02:56:17.872Z,89.27
2018-12-11T02:58:45.425Z,89.55
2018-12-11T03:01:13.661Z,89.61
2018-12-11T03:03:41.050Z,89.56
2018-12-11T03:06:08.451Z,89.21
2018-12-11T03:08:35.853Z,89.46
2018-12-11T03:11:03.248Z,89.30
2018-12-11T03:13:30.644Z,88.52
2018-12-11T03:15:58.047Z,89.86
2018-12-11T03:18:25.421Z,89.13
2018-12-11T03:20:52.955Z,89.04
2018-12-11T03:23:20.369Z,88.35
2018-12-11T03:25:47.823Z,88.74
2018-12-11T03:28:15.209Z,87.95
2018-12-11T03:30:42.732Z,87.62
2018-12-11T03:33:11.214Z,87.79
2018-12-11T03:35:38.569Z,88.31
2018-12-11T03:38:06.046Z,88.34
2018-12-11T03:40:33.505Z,88.84
2018-12-11T03:43:00.902Z,89.03
2018-12-11T03:45:28.262Z,88.80
2018-12-11T03:47:55.779Z,87.98
2018-12-11T03:50:23.935Z,89.12
2018-12-11T03:52:51.331Z,88.71
2018-12-11T03:55:18.740Z,88.49
2018-12-11T03:57:46.114Z,88.01
2018-12-11T04:00:13.603Z,87.99
2018-12-11T04:02:41.133Z,88.52
2018-12-11T04:05:08.601Z,87.40
2018-12-11T04:07:36.009Z,87.31
2018-12-11T04:10:04.387Z,87.68
2018-12-11T04:12:32.312Z,87.16
2018-12-11T04:14:59.732Z,87.01
2018-12-11T04:17:27.177Z,87.66
2018-12-11T04:19:54.560Z,86.64
2018-12-11T04:22:21.916Z,86.71
2018-12-11T04:24:49.345Z,87.90
2018-12-11T04:27:16.855Z,87.43
2018-12-11T04:29:44.345Z,87.96
2018-12-11T04:32:11.701Z,87.17
2018-12-11T04:34:39.124Z,87.00
2018-12-11T04:37:06.500Z,86.86
2018-12-11T04:39:34.405Z,87.09
2018-12-11T04:42:01.811Z,86.85
2018-12-11T04:44:29.292Z,87.30
2018-12-11T04:47:07.167Z,87.30
2018-12-11T04:49:35.659Z,87.09
2018-12-11T04:52:03.144Z,87.08
2018-12-11T04:54:30.492Z,87.11
2018-12-11T04:56:57.985Z,86.65
2018-12-11T04:59:25.390Z,86.20
2018-12-11T05:01:52.874Z,86.01
2018-12-11T05:04:20.195Z,86.63
2018-12-11T05:06:47.557Z,86.20
2018-12-11T05:09:14.918Z,87.55
2018-12-11T05:11:42.880Z,87.52
2018-12-11T05:14:10.270Z,86.97
2018-12-11T05:16:38.953Z,87.36
2018-12-11T05:19:06.337Z,89.41
2018-12-11T05:21:33.772Z,87.12
2018-12-11T05:24:01.141Z,86.77
2018-12-11T05:26:28.584Z,88.28
2018-12-11T05:28:55.979Z,87.81
2018-12-11T05:31:23.371Z,87.36
2018-12-11T05:33:50.940Z,86.66
2018-12-11T05:36:18.365Z,87.23
2018-12-11T05:38:45.825Z,87.22
2018-12-11T05:41:13.228Z,87.74
2018-12-11T05:43:40.680Z,88.74
2018-12-11T05:46:08.047Z,87.64
2018-12-11T05:48:35.430Z,88.43
2018-12-11T05:51:02.796Z,88.11
2018-12-11T05:53:30.244Z,87.86
2018-12-11T05:55:57.623Z,87.96
2018-12-11T05:58:25.017Z,88.90
2018-12-11T06:00:52.975Z,88.75
2018-12-11T06:03:20.355Z,88.28
2018-12-11T06:05:49.031Z,89.05
2018-12-11T06:08:16.450Z,88.51
2018-12-11T06:13:22.632Z,87.98
2018-12-11T06:15:50.046Z,87.40
2018-12-11T06:18:17.386Z,88.38
2018-12-11T06:20:44.795Z,88.65
2018-12-11T06:23:12.164Z,89.24
2018-12-11T06:25:39.579Z,89.31
2018-12-11T06:28:06.980Z,89.19
2018-12-11T06:30:34.360Z,89.08
2018-12-11T06:33:01.721Z,89.29
2018-12-11T06:35:29.239Z,88.74
2018-12-11T06:37:56.726Z,89.53
2018-12-11T06:40:24.116Z,88.74
2018-12-11T06:42:51.503Z,90.38
2018-12-11T06:45:19.796Z,89.79
2018-12-11T06:47:47.156Z,89.97
2018-12-11T06:50:14.546Z,88.84
2018-12-11T06:52:41.941Z,89.82
2018-12-11T06:55:09.387Z,89.03
2018-12-11T06:57:36.844Z,89.93
2018-12-11T07:00:04.703Z,89.36
2018-12-11T07:02:32.091Z,90.58
2018-12-11T07:05:00.149Z,90.03
2018-12-11T07:07:27.556Z,89.74
2018-12-11T07:09:54.966Z,89.21
2018-12-11T07:12:22.355Z,89.70
2018-12-11T07:14:49.781Z,90.18
2018-12-11T07:17:17.186Z,90.45
2018-12-11T07:19:44.582Z,89.78
2018-12-11T07:22:12.635Z,90.20
2018-12-11T07:24:40.013Z,90.29
2018-12-11T07:27:07.479Z,90.00
2018-12-11T07:29:34.907Z,89.29
2018-12-11T07:32:02.694Z,89.68
2018-12-11T07:34:30.839Z,89.98
2018-12-11T07:36:58.280Z,90.41
2018-12-11T07:39:25.669Z,89.92
2018-12-11T07:41:53.083Z,89.06
2018-12-11T07:44:20.483Z,90.22
2018-12-11T07:46:47.880Z,90.24
2018-12-11T07:49:16.347Z,90.29
2018-12-11T07:51:43.795Z,89.47
2018-12-11T07:54:11.269Z,90.17
2018-12-11T07:56:38.631Z,89.26
2018-12-11T07:59:06.023Z,89.56
2018-12-11T08:01:33.613Z,90.62
2018-12-11T08:04:01.067Z,89.31
2018-12-11T08:06:28.432Z,89.69
2018-12-11T08:08:56.794Z,90.26
2018-12-11T08:11:24.294Z,89.18
2018-12-11T08:13:51.668Z,89.26
2018-12-11T08:18:58.264Z,89.91
2018-12-11T08:21:25.877Z,89.92
2018-12-11T08:23:53.305Z,90.01
2018-12-11T08:26:20.778Z,90.31
2018-12-11T08:28:48.109Z,89.33
2018-12-11T08:31:15.488Z,89.36
2018-12-11T08:33:42.861Z,89.76
2018-12-11T08:36:10.230Z,89.98
2018-12-11T08:38:37.585Z,90.19
2018-12-11T08:41:05.025Z,89.60
2018-12-11T08:43:32.390Z,89.18
2018-12-11T08:45:59.786Z,89.75
2018-12-11T08:48:27.177Z,90.01
2018-12-11T08:50:54.573Z,89.03
2018-12-11T08:53:21.957Z,89.04
2018-12-11T08:55:49.379Z,89.89
2018-12-11T08:58:16.723Z,88.68
2018-12-11T09:00:44.113Z,89.34
2018-12-11T09:03:11.514Z,88.85
2018-12-11T09:05:38.909Z,89.31
2018-12-11T09:08:06.324Z,88.69
2018-12-11T09:10:33.664Z,87.91
2018-12-11T09:13:01.056Z,88.56
2018-12-11T09:15:28.441Z,88.59
2018-12-11T09:17:55.813Z,88.41
2018-12-11T09:20:23.203Z,88.93
2018-12-11T09:22:50.609Z,87.92
2018-12-11T09:25:17.983Z,89.17
2018-12-11T09:27:45.439Z,88.53
2018-12-11T09:30:12.890Z,89.18
2018-12-11T09:32:40.291Z,88.78
2018-12-11T09:35:07.700Z,89.12
2018-12-11T09:37:35.113Z,88.87
2018-12-11T09:40:03.225Z,87.44
2018-12-11T09:42:30.619Z,86.93
2018-12-11T09:44:58.032Z,87.05
2018-12-11T09:47:25.419Z,86.86
2018-12-11T09:49:52.781Z,87.45
2018-12-11T09:52:20.144Z,86.10
2018-12-11T09:54:47.685Z,86.36
2018-12-11T09:57:15.059Z,86.43
2018-12-11T09:59:42.445Z,86.79
2018-12-11T10:02:09.812Z,86.49
2018-12-11T10:04:37.216Z,87.62
2018-12-11T10:07:04.581Z,87.27
2018-12-11T10:09:32.004Z,86.93
2018-12-11T10:11:59.388Z,87.00
2018-12-11T10:14:26.779Z,88.47
2018-12-11T10:16:54.165Z,88.44
2018-12-11T10:19:21.513Z,87.99
2018-12-11T10:24:27.608Z,88.34
2018-12-11T10:26:55.024Z,88.79
2018-12-11T10:29:22.530Z,89.37
2018-12-11T10:31:49.958Z,88.91
2018-12-11T10:34:17.819Z,88.25
2018-12-11T10:36:45.215Z,88.34
2018-12-11T10:39:12.553Z,89.01
2018-12-11T10:41:39.984Z,88.59
2018-12-11T10:44:07.320Z,89.17
2018-12-11T10:46:34.696Z,88.80
2018-12-11T10:49:02.064Z,88.89
2018-12-11T10:51:29.423Z,88.41
2018-12-11T10:53:56.770Z,89.78
2018-12-11T10:56:24.172Z,89.52
2018-12-11T10:58:51.524Z,89.66
2018-12-11T11:01:21.390Z,89.29
2018-12-11T11:03:48.760Z,88.72
2018-12-11T11:06:16.141Z,89.18
2018-12-11T11:08:43.490Z,88.21
2018-12-11T11:11:11.030Z,87.82
2018-12-11T11:13:38.513Z,88.22
2018-12-11T11:16:10.535Z,88.55
2018-12-11T11:18:37.932Z,88.56
2018-12-11T11:21:05.323Z,89.24
2018-12-11T11:23:32.714Z,88.35
2018-12-11T11:26:00.064Z,89.42
2018-12-11T11:28:27.454Z,88.81
2018-12-11T11:30:54.862Z,88.44
2018-12-11T11:33:22.309Z,88.12
2018-12-11T11:35:49.702Z,88.06
2018-12-11T11:38:17.059Z,88.43
2018-12-11T11:40:44.406Z,87.66
2018-12-11T11:43:11.815Z,86.81
2018-12-11T11:45:39.155Z,87.88
2018-12-11T11:48:06.530Z,87.72
2018-12-11T11:50:34.174Z,87.32
2018-12-11T11:53:01.591Z,88.39
2018-12-11T11:55:28.992Z,88.75
2018-12-11T11:57:56.361Z,88.38
2018-12-11T12:00:23.742Z,89.32
2018-12-11T12:02:51.126Z,88.17
2018-12-11T12:05:18.477Z,88.40
2018-12-11T12:07:45.847Z,87.93
2018-12-11T12:10:13.234Z,87.79
2018-12-11T12:12:40.571Z,86.48
2018-12-11T12:15:08.856Z,87.21
2018-12-11T12:17:36.261Z,87.54
2018-12-11T12:20:05.206Z,88.45
2018-12-11T12:22:32.562Z,88.04
2018-12-11T12:24:59.922Z,87.68
2018-12-11T12:27:27.287Z,88.48
2018-12-11T12:29:54.685Z,87.58
2018-12-11T12:32:22.055Z,87.97
2018-12-11T12:34:49.446Z,87.56
2018-12-11T12:37:16.836Z,87.53
2018-12-11T12:39:44.242Z,87.50
2018-12-11T12:42:11.635Z,87.95
2018-12-11T12:44:39.095Z,88.76
2018-12-11T12:47:06.542Z,87.70
2018-12-11T12:49:33.889Z,87.60
2018-12-11T12:52:01.257Z,88.35
2018-12-11T12:54:28.645Z,88.81
2018-12-11T12:56:56.050Z,87.63
2018-12-11T12:59:23.416Z,88.32
2018-12-11T13:01:50.824Z,88.96
2018-12-11T13:04:18.207Z,87.73
2018-12-11T13:06:45.837Z,87.40
2018-12-11T13:09:13.331Z,87.33
2018-12-11T13:11:40.725Z,86.89
2018-12-11T13:14:08.055Z,87.51
2018-12-11T13:16:35.443Z,86.39
2018-12-11T13:19:02.779Z,85.33
2018-12-11T13:21:30.187Z,84.17
2018-12-11T13:23:57.542Z,85.48
2018-12-11T13:26:24.914Z,85.58
2018-12-11T13:28:52.316Z,84.85
2018-12-11T13:31:19.705Z,85.05
2018-12-11T13:33:47.070Z,85.89
2018-12-11T13:36:14.472Z,86.09
2018-12-11T13:38:41.954Z,87.49
2018-12-11T13:41:09.348Z,87.82
2018-12-11T13:43:36.936Z,87.46
2018-12-11T13:46:04.274Z,86.20
2018-12-11T13:48:32.020Z,87.35
2018-12-11T13:50:59.486Z,86.19
2018-12-11T13:53:27.036Z,85.50
2018-12-11T13:55:54.414Z,85.67
2018-12-11T13:58:21.804Z,86.06
2018-12-11T14:00:49.227Z,87.01
2018-12-11T14:03:16.580Z,86.42
2018-12-11T14:05:43.934Z,86.16
2018-12-11T14:08:11.293Z,86.48
2018-12-11T14:10:38.801Z,87.65
2018-12-11T14:13:06.202Z,86.23
2018-12-11T14:15:33.521Z,86.27
2018-12-11T14:18:00.927Z,86.15
2018-12-11T14:20:28.344Z,86.06
2018-12-11T14:22:55.738Z,86.60
2018-12-11T14:25:23.155Z,87.39
2018-12-11T14:27:50.570Z,87.42
2018-12-11T14:30:17.960Z,87.53
2018-12-11T14:32:45.364Z,86.96
2018-12-11T14:35:12.770Z,86.63
2018-12-11T14:37:40.201Z,87.04
2018-12-11T14:40:07.576Z,87.33
2018-12-11T14:42:34.993Z,87.23
2018-12-11T14:45:02.399Z,87.11
2018-12-11T14:47:29.782Z,86.56
2018-12-11T14:49:57.280Z,87.10
2018-12-11T14:52:24.656Z,87.32
2018-12-11T14:54:52.026Z,87.74
2018-12-11T14:57:19.852Z,87.38
2018-12-11T14:59:47.261Z,87.04
2018-12-11T15:02:14.859Z,87.95
2018-12-11T15:04:42.326Z,87.24
2018-12-11T15:07:09.652Z,87.66
2018-12-11T15:09:43.467Z,86.87
2018-12-11T15:12:11.323Z,87.86
2018-12-11T15:14:38.719Z,88.10
2018-12-11T15:17:06.136Z,88.52
2018-12-11T15:19:33.510Z,88.79
2018-12-11T15:22:00.862Z,88.25
2018-12-11T15:24:28.273Z,88.46
2018-12-11T15:26:55.612Z,88.34
2018-12-11T15:29:23.055Z,88.79
2018-12-11T15:31:50.430Z,89.24
2018-12-11T15:34:17.926Z,89.34
2018-12-11T15:36:45.323Z,89.65
2018-12-11T15:39:12.695Z,90.13
2018-12-11T15:41:40.952Z,90.09
2018-12-11T15:44:08.340Z,90.59
2018-12-11T15:46:36.095Z,89.92
2018-12-11T15:49:04.168Z,89.46
2018-12-11T15:51:31.732Z,90.25
2018-12-11T15:53:59.322Z,90.35
2018-12-11T15:56:26.874Z,90.12
2018-12-11T15:58:54.250Z,90.69
2018-12-11T16:01:21.710Z,91.08
2018-12-11T16:03:49.229Z,90.41
2018-12-11T16:06:16.637Z,91.37
2018-12-11T16:08:44.031Z,91.08
2018-12-11T16:11:11.570Z,91.22
2018-12-11T16:13:38.945Z,91.25
2018-12-11T16:16:06.377Z,89.74
2018-12-11T16:18:34.550Z,90.26
2018-12-11T16:21:01.978Z,90.42
2018-12-11T16:23:29.312Z,90.41
2018-12-11T16:25:56.881Z,90.01
2018-12-11T16:28:24.293Z,89.65
2018-12-11T16:30:52.403Z,90.33
2018-12-11T16:33:19.756Z,90.21
2018-12-11T16:35:47.105Z,89.63
2018-12-11T16:38:14.518Z,90.16
2018-12-11T16:40:41.901Z,90.21
2018-12-11T16:43:09.313Z,89.39
2018-12-11T16:45:36.671Z,89.97
2018-12-11T16:48:04.060Z,89.85
2018-12-11T16:50:31.461Z,89.56
2018-12-11T16:52:58.889Z,89.65
2018-12-11T16:55:26.294Z,89.62
2018-12-11T16:57:53.689Z,89.75
2018-12-11T17:00:21.156Z,89.46
2018-12-11T17:02:48.547Z,89.18
2018-12-11T17:05:15.962Z,89.89
2018-12-11T17:07:43.355Z,90.29
2018-12-11T17:10:10.762Z,90.22
2018-12-11T17:12:38.413Z,89.86
2018-12-11T17:15:09.328Z,90.76
2018-12-11T17:17:36.738Z,90.59
2018-12-11T17:20:04.574Z,90.28
2018-12-11T17:22:31.947Z,89.55
2018-12-11T17:24:59.339Z,89.15
2018-12-11T17:27:26.832Z,88.54
2018-12-11T17:29:54.239Z,89.59
2018-12-11T17:32:21.659Z,89.67
2018-12-11T17:34:49.113Z,88.99
2018-12-11T17:37:16.569Z,89.21
2018-12-11T17:39:43.982Z,89.18
2018-12-11T17:42:11.457Z,89.10
2018-12-11T17:44:38.825Z,87.69
2018-12-11T17:47:06.249Z,87.92
2018-12-11T17:49:33.639Z,88.19
2018-12-11T17:52:01.013Z,86.58
2018-12-11T17:54:28.405Z,87.47
2018-12-11T17:56:55.981Z,87.41
2018-12-11T17:59:23.374Z,87.16
2018-12-11T18:01:54.834Z,87.85
2018-12-11T18:04:22.230Z,86.05
2018-12-11T18:06:49.664Z,85.88
2018-12-11T18:09:17.083Z,86.66
2018-12-11T18:11:44.442Z,87.63
2018-12-11T18:14:11.883Z,87.62
2018-12-11T18:16:39.305Z,87.00
2018-12-11T18:19:06.698Z,88.08
2018-12-11T18:21:34.218Z,87.94
2018-12-11T18:24:01.660Z,87.97
2018-12-11T18:26:29.073Z,88.30
2018-12-11T18:28:56.490Z,88.30
2018-12-11T18:31:23.885Z,88.56
2018-12-11T18:33:51.379Z,87.93
2018-12-11T18:36:18.799Z,88.64
2018-12-11T18:38:46.204Z,88.62
2018-12-11T18:41:13.605Z,89.42
2018-12-11T18:43:41.085Z,88.76
2018-12-11T18:46:08.534Z,89.65
2018-12-11T18:48:36.006Z,89.51
2018-12-11T18:51:03.698Z,90.17
2018-12-11T18:53:31.059Z,89.48
2018-12-11T18:55:58.499Z,89.87
2018-12-11T18:58:25.889Z,90.16
2018-12-11T19:00:53.332Z,89.71
2018-12-11T19:03:20.741Z,90.07
2018-12-11T19:05:48.184Z,89.48
2018-12-11T19:08:15.589Z,89.59
2018-12-11T19:10:42.981Z,90.15
2018-12-11T19:13:10.350Z,90.41
2018-12-11T19:15:37.776Z,90.66
2018-12-11T19:18:05.275Z,90.80
2018-12-11T19:20:32.800Z,90.60
2018-12-11T19:24:17.515Z,90.74
2018-12-11T19:26:44.990Z,91.21
2018-12-11T19:29:12.415Z,91.82
2018-12-11T19:31:39.875Z,91.13
2018-12-11T19:34:07.359Z,90.80
2018-12-11T19:36:34.820Z,91.11
2018-12-11T19:39:04.320Z,89.96
2018-12-11T19:41:31.817Z,89.90
2018-12-11T19:43:59.254Z,90.13
2018-12-11T19:46:26.735Z,89.33
2018-12-11T19:48:54.275Z,89.11
2018-12-11T19:51:21.698Z,88.15
2018-12-11T19:53:49.176Z,88.02
2018-12-11T19:56:16.876Z,88.67
2018-12-11T20:01:17.987Z,88.54
2018-12-11T20:03:45.418Z,88.11
2018-12-11T20:06:12.847Z,88.52
2018-12-11T20:08:40.288Z,88.11
2018-12-11T20:11:07.674Z,87.22
2018-12-11T20:13:35.114Z,86.81
2018-12-11T20:16:02.548Z,86.25
2018-12-11T20:18:29.907Z,86.80
2018-12-11T20:20:57.362Z,86.35
2018-12-11T20:23:24.796Z,85.98
2018-12-11T20:25:52.202Z,85.98
2018-12-11T20:28:19.628Z,86.58
2018-12-11T20:30:47.037Z,86.78
2018-12-11T20:33:14.430Z,86.61
2018-12-11T20:35:41.832Z,86.34
2018-12-11T20:38:09.292Z,85.44
2018-12-11T20:40:36.765Z,87.14
2018-12-11T20:43:04.443Z,86.50
2018-12-11T20:45:31.825Z,87.29
2018-12-11T20:47:59.188Z,86.39
2018-12-11T20:50:26.617Z,86.99
2018-12-11T20:52:54.046Z,88.24
2018-12-11T20:55:21.415Z,86.84
2018-12-11T20:57:48.831Z,86.73
2018-12-11T21:00:16.278Z,86.53
2018-12-11T21:02:43.722Z,85.56
2018-12-11T21:05:11.093Z,85.93
2018-12-11T21:07:38.553Z,86.48
2018-12-11T21:10:08.748Z,85.80
2018-12-11T21:12:36.146Z,85.99
2018-12-11T21:15:04.398Z,85.76
2018-12-11T21:17:31.891Z,87.08
2018-12-11T21:19:59.291Z,86.49
2018-12-11T21:22:26.743Z,87.17
2018-12-11T21:24:54.106Z,86.93
2018-12-11T21:27:21.505Z,87.88
2018-12-11T21:29:48.929Z,87.68
2018-12-11T21:32:16.352Z,86.64
2018-12-11T21:34:43.799Z,87.51
2018-12-11T21:37:11.166Z,87.98
2018-12-11T21:39:38.573Z,88.58
2018-12-11T21:42:06.078Z,89.01
2018-12-11T21:44:33.519Z,89.75
2018-12-11T21:47:00.930Z,89.33
2018-12-11T21:49:28.300Z,90.12
2018-12-11T21:51:55.674Z,90.22
2018-12-11T21:54:23.100Z,89.81
2018-12-11T21:56:50.719Z,90.71
2018-12-11T21:59:18.442Z,90.60
2018-12-11T22:01:45.839Z,91.01
2018-12-11T22:04:13.521Z,91.06
2018-12-11T22:06:40.884Z,91.29
2018-12-11T22:09:09.224Z,91.58
2018-12-11T22:11:36.660Z,92.02
2018-12-11T22:14:04.143Z,92.26
2018-12-11T22:16:31.922Z,92.48
2018-12-11T22:18:59.522Z,92.07
2018-12-11T22:21:26.943Z,91.48
2018-12-11T22:23:54.728Z,91.59
2018-12-11T22:26:23.952Z,91.93
2018-12-11T22:28:51.340Z,93.22
2018-12-11T22:31:18.700Z,93.37
2018-12-11T22:33:46.048Z,92.66
2018-12-11T22:36:13.983Z,93.00
2018-12-11T22:38:41.356Z,92.54
2018-12-11T22:41:09.112Z,92.78
2018-12-11T22:43:36.888Z,92.58
2018-12-11T22:46:04.703Z,92.55
2018-12-11T22:48:32.452Z,93.60
2018-12-11T22:51:00.134Z,94.95
2018-12-11T22:53:27.487Z,95.90
2018-12-11T22:55:54.863Z,96.07
2018-12-11T22:58:22.297Z,95.75
2018-12-11T23:00:49.809Z,95.95
2018-12-11T23:03:17.352Z,95.71
2018-12-11T23:05:44.771Z,94.77
2018-12-11T23:08:12.107Z,92.87
2018-12-11T23:10:39.613Z,93.46
2018-12-11T23:13:07.023Z,93.50
2018-12-11T23:15:34.368Z,93.06
2018-12-11T23:18:01.731Z,94.35
2018-12-11T23:20:29.088Z,94.93
2018-12-11T23:22:56.548Z,95.01
2018-12-11T23:25:23.928Z,94.25
2018-12-11T23:27:51.298Z,93.94
2018-12-11T23:30:18.687Z,93.99
2018-12-11T23:32:46.197Z,93.90
2018-12-11T23:35:13.758Z,92.72
2018-12-11T23:37:41.121Z,93.05
2018-12-11T23:40:08.527Z,93.21
2018-12-11T23:42:35.927Z,94.10
2018-12-11T23:45:03.737Z,94.86
2018-12-11T23:50:11.134Z,95.83
2018-12-11T23:52:38.519Z,95.73
2018-12-11T23:55:06.038Z,94.44
2018-12-11T23:57:33.378Z,92.19
